createdAt,value
2023-08-14T00:01:30.242Z,7.05
2023-08-14T00:03:57.421Z,6.55
2023-08-14T00:06:24.611Z,6.88
2023-08-14T00:08:52.547Z,7.70
2023-08-14T00:11:19.932Z,6.30
2023-08-14T00:13:51.853Z,6.38
2023-08-14T00:16:19.640Z,6.88
2023-08-14T00:18:50.073Z,8.98
2023-08-14T00:23:44.715Z,5.22
2023-08-14T00:26:17.006Z,4.95
2023-08-14T00:28:44.323Z,6.07
2023-08-14T00:31:11.516Z,6.18
2023-08-14T00:33:38.750Z,6.63
2023-08-14T00:36:09.405Z,6.90
2023-08-14T00:38:36.666Z,7.40
2023-08-14T00:41:04.258Z,6.25
2023-08-14T00:43:34.298Z,5.55
2023-08-14T00:46:02.260Z,5.95
2023-08-14T00:48:31.040Z,6.43
2023-08-14T00:50:58.567Z,6.15
2023-08-14T00:53:28.710Z,5.90
2023-08-14T00:55:56.732Z,5.20
2023-08-14T00:58:24.410Z,6.28
2023-08-14T01:00:52.443Z,5.93
2023-08-14T01:03:21.415Z,6.22
2023-08-14T01:05:48.682Z,7.68
2023-08-14T01:08:15.909Z,5.50
2023-08-14T01:10:48.950Z,5.85
2023-08-14T01:13:27.049Z,8.10
2023-08-14T01:15:56.775Z,5.47
2023-08-14T01:18:26.849Z,5.68
2023-08-14T01:21:18.729Z,6.03
2023-08-14T01:23:57.631Z,6.45
2023-08-14T01:26:25.909Z,9.20
2023-08-14T01:28:55.181Z,6.22
2023-08-14T01:31:22.992Z,6.30
2023-08-14T01:33:50.635Z,8.88
2023-08-14T01:36:24.380Z,8.98
2023-08-14T01:39:01.655Z,6.57
2023-08-14T01:42:01.187Z,5.38
2023-08-14T01:44:32.703Z,5.95
2023-08-14T01:47:04.232Z,7.35
2023-08-14T01:49:32.909Z,6.22
2023-08-14T01:52:01.108Z,5.40
2023-08-14T01:54:28.273Z,6.88
2023-08-14T01:56:57.422Z,5.90
2023-08-14T01:59:36.818Z,5.93
2023-08-14T02:02:03.965Z,5.32
2023-08-14T02:04:31.183Z,6.43
2023-08-14T02:06:58.219Z,8.15
2023-08-14T02:09:25.336Z,7.78
2023-08-14T02:11:52.522Z,7.32
2023-08-14T02:14:20.374Z,6.22
2023-08-14T02:16:47.615Z,6.35
2023-08-14T02:19:14.913Z,6.28
2023-08-14T02:21:42.184Z,6.65
2023-08-14T02:24:09.835Z,6.43
2023-08-14T02:26:37.731Z,6.68
2023-08-14T02:29:04.969Z,5.63
2023-08-14T02:31:32.084Z,9.00
2023-08-14T02:34:01.423Z,5.90
2023-08-14T02:36:29.945Z,5.57
2023-08-14T02:38:58.434Z,6.32
2023-08-14T02:41:25.543Z,6.18
2023-08-14T02:43:52.655Z,5.30
2023-08-14T02:46:19.767Z,6.85
2023-08-14T02:48:46.980Z,5.97
2023-08-14T02:51:16.647Z,6.03
2023-08-14T02:53:43.810Z,5.95
2023-08-14T02:56:11.010Z,6.93
2023-08-14T02:58:38.220Z,7.40
2023-08-14T03:01:05.765Z,6.13
2023-08-14T03:03:32.923Z,5.80
2023-08-14T03:06:00.427Z,6.05
2023-08-14T03:08:27.933Z,6.10
2023-08-14T03:10:55.301Z,6.40
2023-08-14T03:13:22.473Z,6.13
2023-08-14T03:15:49.606Z,6.47
2023-08-14T03:18:16.751Z,5.45
2023-08-14T03:20:43.953Z,5.82
2023-08-14T03:23:10.958Z,6.93
2023-08-14T03:25:38.140Z,5.88
2023-08-14T03:28:06.126Z,6.20
2023-08-14T03:30:34.878Z,6.57
2023-08-14T03:33:02.222Z,7.00
2023-08-14T03:35:31.150Z,6.65
2023-08-14T03:37:58.414Z,6.80
2023-08-14T03:40:25.901Z,6.45
2023-08-14T03:42:53.235Z,7.53
2023-08-14T03:45:21.554Z,6.53
2023-08-14T03:47:48.795Z,6.07
2023-08-14T03:50:17.016Z,5.13
2023-08-14T03:52:44.148Z,5.95
2023-08-14T03:55:11.433Z,6.80
2023-08-14T03:57:38.621Z,5.50
2023-08-14T04:00:08.156Z,5.55
2023-08-14T04:02:39.933Z,4.90
2023-08-14T04:05:08.525Z,6.30
2023-08-14T04:07:35.849Z,6.35
2023-08-14T04:10:04.481Z,6.85
2023-08-14T04:12:33.074Z,6.18
2023-08-14T04:15:16.469Z,8.35
2023-08-14T04:17:45.355Z,8.00
2023-08-14T04:20:12.641Z,9.15
2023-08-14T04:22:39.967Z,11.00
2023-08-14T04:25:07.883Z,9.52
2023-08-14T04:27:39.073Z,7.97
2023-08-14T04:30:07.475Z,6.38
2023-08-14T04:32:36.583Z,6.72
2023-08-14T04:35:04.302Z,6.72
2023-08-14T04:37:31.821Z,8.45
2023-08-14T04:39:58.927Z,9.77
2023-08-14T04:42:26.845Z,7.70
2023-08-14T04:44:54.016Z,6.40
2023-08-14T04:47:21.134Z,6.90
2023-08-14T04:49:48.790Z,8.80
2023-08-14T04:52:16.211Z,6.97
2023-08-14T04:54:47.026Z,6.20
2023-08-14T04:57:14.534Z,7.85
2023-08-14T04:59:41.582Z,7.50
2023-08-14T05:02:08.896Z,6.32
2023-08-14T05:04:35.992Z,5.88
2023-08-14T05:07:03.306Z,7.32
2023-08-14T05:09:31.071Z,5.95
2023-08-14T05:11:59.460Z,6.40
2023-08-14T05:14:27.330Z,9.80
2023-08-14T05:16:54.475Z,9.00
2023-08-14T05:19:21.763Z,7.18
2023-08-14T05:21:51.782Z,8.75
2023-08-14T05:24:19.589Z,8.18
2023-08-14T05:26:46.721Z,6.72
2023-08-14T05:29:13.997Z,6.20
2023-08-14T05:31:41.326Z,8.00
2023-08-14T05:34:08.447Z,6.50
2023-08-14T05:36:35.627Z,6.22
2023-08-14T05:39:02.958Z,6.75
2023-08-14T05:41:30.315Z,7.85
2023-08-14T05:43:57.392Z,8.93
2023-08-14T05:46:25.686Z,7.32
2023-08-14T05:48:53.008Z,6.80
2023-08-14T05:51:20.195Z,6.35
2023-08-14T05:53:47.280Z,7.13
2023-08-14T05:56:17.363Z,8.63
2023-08-14T05:58:44.493Z,7.78
2023-08-14T06:01:11.591Z,7.05
2023-08-14T06:03:44.821Z,7.07
2023-08-14T06:06:13.258Z,7.72
2023-08-14T06:08:40.452Z,6.57
2023-08-14T06:11:07.629Z,8.38
2023-08-14T06:13:34.708Z,7.05
2023-08-14T06:16:01.839Z,7.38
2023-08-14T06:18:29.499Z,7.93
2023-08-14T06:20:56.707Z,7.72
2023-08-14T06:23:23.903Z,9.48
2023-08-14T06:25:51.091Z,7.72
2023-08-14T06:28:18.154Z,9.80
2023-08-14T06:30:45.695Z,7.85
2023-08-14T06:33:14.547Z,9.38
2023-08-14T06:35:42.976Z,9.63
2023-08-14T06:38:10.361Z,10.75
2023-08-14T06:40:37.670Z,8.40
2023-08-14T06:43:07.654Z,8.88
2023-08-14T06:48:02.875Z,8.23
2023-08-14T06:50:30.199Z,7.72
2023-08-14T06:52:57.389Z,7.63
2023-08-14T06:55:24.700Z,7.88
2023-08-14T06:57:51.974Z,8.00
2023-08-14T07:00:19.182Z,7.97
2023-08-14T07:02:48.509Z,8.05
2023-08-14T07:05:16.847Z,10.25
2023-08-14T07:07:44.240Z,8.52
2023-08-14T07:10:11.418Z,8.35
2023-08-14T07:12:38.781Z,10.20
2023-08-14T07:15:09.986Z,11.43
2023-08-14T07:17:37.404Z,8.98
2023-08-14T07:20:10.449Z,10.90
2023-08-14T07:22:39.099Z,9.73
2023-08-14T07:25:07.251Z,8.20
2023-08-14T07:27:34.586Z,8.50
2023-08-14T07:30:01.786Z,8.93
2023-08-14T07:32:32.792Z,8.88
2023-08-14T07:34:59.951Z,8.13
2023-08-14T07:37:27.044Z,7.63
2023-08-14T07:39:54.185Z,10.30
2023-08-14T07:42:21.796Z,13.45
2023-08-14T07:44:49.162Z,7.97
2023-08-14T07:47:16.385Z,8.38
2023-08-14T07:49:43.532Z,10.20
2023-08-14T07:52:11.665Z,7.05
2023-08-14T07:54:39.106Z,8.43
2023-08-14T07:57:06.374Z,7.82
2023-08-14T07:59:41.381Z,8.98
2023-08-14T08:02:08.558Z,7.35
2023-08-14T08:04:40.184Z,12.30
2023-08-14T08:07:11.164Z,11.77
2023-08-14T08:12:06.300Z,12.18
2023-08-14T08:14:37.369Z,13.20
2023-08-14T08:17:04.946Z,12.35
2023-08-14T08:19:32.190Z,10.43
2023-08-14T08:21:59.473Z,8.07
2023-08-14T08:24:26.731Z,14.27
2023-08-14T08:26:53.783Z,9.82
2023-08-14T08:29:20.915Z,10.10
2023-08-14T08:31:48.069Z,8.07
2023-08-14T08:34:15.390Z,8.25
2023-08-14T08:36:42.700Z,9.23
2023-08-14T08:39:09.811Z,8.63
2023-08-14T08:41:45.187Z,9.13
2023-08-14T08:44:38.298Z,9.63
2023-08-14T08:47:09.563Z,10.50
2023-08-14T08:49:37.869Z,11.35
2023-08-14T08:52:05.625Z,8.20
2023-08-14T08:54:33.100Z,12.75
2023-08-14T08:57:01.560Z,11.52
2023-08-14T08:59:29.210Z,8.82
2023-08-14T09:01:58.247Z,9.80
2023-08-14T09:04:26.320Z,9.02
2023-08-14T09:06:54.111Z,11.93
2023-08-14T09:09:21.885Z,10.82
2023-08-14T09:11:49.284Z,11.23
2023-08-14T09:14:18.691Z,14.07
2023-08-14T09:16:45.935Z,7.72
2023-08-14T09:19:16.249Z,10.20
2023-08-14T09:21:44.963Z,8.45
2023-08-14T09:24:14.217Z,10.07
2023-08-14T09:26:45.172Z,8.38
2023-08-14T09:31:45.956Z,9.10
2023-08-14T09:34:17.984Z,8.27
2023-08-14T09:36:46.116Z,10.45
2023-08-14T09:39:13.668Z,8.18
2023-08-14T09:41:41.009Z,8.32
2023-08-14T09:44:08.230Z,7.30
2023-08-14T09:46:35.443Z,7.72
2023-08-14T09:49:02.847Z,6.95
2023-08-14T09:51:29.976Z,8.18
2023-08-14T09:53:58.330Z,7.70
2023-08-14T09:56:27.062Z,8.38
2023-08-14T09:58:55.414Z,9.95
2023-08-14T10:01:23.905Z,8.07
2023-08-14T10:03:55.439Z,7.93
2023-08-14T10:06:24.746Z,8.45
2023-08-14T10:09:01.533Z,7.97
2023-08-14T10:11:32.994Z,7.45
2023-08-14T10:14:06.312Z,8.95
2023-08-14T10:16:39.871Z,7.32
2023-08-14T10:19:14.866Z,6.90
2023-08-14T10:21:44.722Z,6.85
2023-08-14T10:24:13.061Z,7.93
2023-08-14T10:26:40.308Z,7.22
2023-08-14T10:29:07.502Z,7.22
2023-08-14T10:31:35.318Z,8.93
2023-08-14T10:34:03.192Z,6.28
2023-08-14T10:36:31.535Z,8.35
2023-08-14T10:39:18.866Z,7.80
2023-08-14T10:41:47.138Z,8.13
2023-08-14T10:44:14.684Z,7.95
2023-08-14T10:46:43.546Z,9.70
2023-08-14T10:49:14.882Z,8.25
2023-08-14T10:51:44.080Z,7.85
2023-08-14T11:08:13.134Z,6.35
2023-08-14T11:10:42.812Z,6.57
2023-08-14T11:13:10.689Z,6.32
2023-08-14T11:15:40.298Z,10.38
2023-08-14T11:18:12.374Z,8.10
2023-08-14T11:20:43.844Z,5.80
2023-08-14T11:23:11.661Z,5.95
2023-08-14T11:25:39.537Z,7.60
2023-08-14T11:28:09.461Z,7.53
2023-08-14T11:30:41.181Z,11.65
2023-08-14T11:33:08.719Z,7.13
2023-08-14T11:35:36.312Z,6.82
2023-08-14T11:38:08.734Z,5.45
2023-08-14T11:40:36.551Z,6.20
2023-08-14T11:43:17.068Z,5.80
2023-08-14T11:45:44.573Z,7.05
2023-08-14T11:48:12.108Z,6.28
2023-08-14T11:50:39.356Z,6.18
2023-08-14T11:53:09.123Z,13.45
2023-08-14T11:55:36.508Z,6.50
2023-08-14T11:58:04.449Z,6.57
2023-08-14T12:00:34.231Z,7.03
2023-08-14T12:03:02.010Z,7.25
2023-08-14T12:05:29.256Z,6.00
2023-08-14T12:08:00.845Z,5.63
2023-08-14T12:10:33.453Z,7.55
2023-08-14T12:13:00.768Z,4.85
2023-08-14T12:15:28.186Z,6.63
2023-08-14T12:17:55.449Z,6.95
2023-08-14T12:20:23.731Z,7.03
2023-08-14T12:22:59.411Z,6.13
2023-08-14T12:25:30.238Z,7.57
2023-08-14T12:27:57.856Z,6.72
2023-08-14T12:30:25.035Z,7.18
2023-08-14T12:32:52.345Z,6.55
2023-08-14T12:35:19.847Z,5.97
2023-08-14T12:37:47.109Z,6.88
2023-08-14T12:40:14.421Z,7.80
2023-08-14T12:42:41.536Z,6.18
2023-08-14T12:45:08.888Z,6.63
2023-08-14T12:47:36.200Z,6.45
2023-08-14T12:50:03.529Z,6.13
2023-08-14T12:52:31.846Z,5.75
2023-08-14T12:57:31.706Z,6.78
2023-08-14T12:59:59.255Z,5.97
2023-08-14T13:04:57.963Z,7.47
2023-08-14T13:07:30.496Z,5.75
2023-08-14T13:09:57.832Z,8.38
2023-08-14T13:12:25.017Z,7.13
2023-08-14T13:14:52.171Z,6.65
2023-08-14T13:17:19.709Z,7.18
2023-08-14T13:19:47.204Z,6.30
2023-08-14T13:22:17.195Z,7.80
2023-08-14T13:24:44.804Z,5.80
2023-08-14T13:27:12.082Z,5.45
2023-08-14T13:29:39.322Z,6.57
2023-08-14T13:32:06.706Z,5.75
2023-08-14T13:34:33.979Z,7.32
2023-08-14T13:37:01.222Z,6.93
2023-08-14T13:39:28.546Z,7.38
2023-08-14T13:41:55.875Z,6.28
2023-08-14T13:44:23.167Z,6.00
2023-08-14T13:46:50.415Z,8.50
2023-08-14T13:49:17.592Z,8.10
2023-08-14T13:51:46.003Z,6.50
2023-08-14T13:54:13.268Z,6.63
2023-08-14T13:56:40.580Z,6.88
2023-08-14T13:59:07.811Z,6.40
2023-08-14T14:01:34.987Z,7.82
2023-08-14T14:04:02.240Z,5.63
2023-08-14T14:06:29.753Z,4.90
2023-08-14T14:08:56.975Z,7.25
2023-08-14T14:11:25.531Z,5.47
2023-08-14T14:13:54.093Z,6.25
2023-08-14T14:16:23.059Z,6.78
2023-08-14T14:18:50.864Z,5.68
2023-08-14T14:21:20.283Z,5.93
2023-08-14T14:23:47.401Z,4.82
2023-08-14T14:26:14.557Z,4.90
2023-08-14T14:28:41.742Z,6.22
2023-08-14T14:31:08.933Z,5.97
2023-08-14T14:33:36.087Z,5.00
2023-08-14T14:36:03.206Z,5.93
2023-08-14T14:38:30.387Z,4.95
2023-08-14T14:40:57.931Z,4.93
2023-08-14T14:43:25.176Z,6.32
2023-08-14T14:45:52.398Z,6.60
2023-08-14T14:48:19.607Z,7.10
2023-08-14T14:50:56.432Z,6.30
2023-08-14T14:53:23.938Z,6.75
2023-08-14T14:55:51.276Z,6.90
2023-08-14T14:58:18.400Z,6.00
2023-08-14T15:00:46.450Z,5.13
2023-08-14T15:03:13.686Z,5.57
2023-08-14T15:05:40.812Z,7.97
2023-08-14T15:08:07.945Z,5.22
2023-08-14T15:10:38.244Z,7.53
2023-08-14T15:13:05.423Z,5.20
2023-08-14T15:15:32.580Z,6.38
2023-08-14T15:18:00.042Z,5.35
2023-08-14T15:20:27.260Z,6.50
2023-08-14T15:22:54.372Z,6.40
2023-08-14T15:25:21.488Z,5.28
2023-08-14T15:27:48.792Z,6.55
2023-08-14T15:30:17.801Z,7.80
2023-08-14T15:32:45.545Z,7.22
2023-08-14T15:35:13.432Z,5.93
2023-08-14T15:37:40.613Z,6.10
2023-08-14T15:40:08.791Z,6.85
2023-08-14T15:42:35.944Z,4.82
2023-08-14T15:45:07.751Z,4.28
2023-08-14T15:47:36.003Z,4.28
2023-08-14T15:50:03.219Z,5.07
2023-08-14T15:52:31.489Z,9.77
2023-08-14T15:55:00.328Z,7.60
2023-08-14T15:57:27.773Z,6.05
2023-08-14T15:59:55.237Z,8.18
2023-08-14T16:02:22.781Z,6.32
2023-08-14T16:04:50.906Z,7.10
2023-08-14T16:07:19.780Z,6.18
2023-08-14T16:09:50.545Z,6.93
2023-08-14T16:12:17.664Z,6.15
2023-08-14T16:14:44.808Z,8.07
2023-08-14T16:17:12.726Z,6.43
2023-08-14T16:19:40.462Z,6.90
2023-08-14T16:22:07.725Z,7.22
2023-08-14T16:24:36.210Z,7.93
2023-08-14T16:27:03.827Z,5.50
2023-08-14T16:29:30.948Z,7.63
2023-08-14T16:31:58.294Z,5.25
2023-08-14T16:34:25.567Z,8.50
2023-08-14T16:36:55.994Z,5.25
2023-08-14T16:39:23.536Z,5.65
2023-08-14T16:41:50.640Z,5.60
2023-08-14T16:44:17.746Z,6.07
2023-08-14T16:46:45.240Z,5.72
2023-08-14T16:49:12.441Z,5.75
2023-08-14T16:51:39.571Z,7.25
2023-08-14T16:54:07.990Z,5.55
2023-08-14T16:56:38.469Z,5.32
2023-08-14T16:59:06.202Z,5.35
2023-08-14T17:01:33.346Z,8.32
2023-08-14T17:04:00.601Z,5.45
2023-08-14T17:06:27.902Z,7.10
2023-08-14T17:08:55.000Z,6.20
2023-08-14T17:11:23.670Z,6.82
2023-08-14T17:13:51.475Z,9.73
2023-08-14T17:16:18.691Z,9.60
2023-08-14T17:18:47.876Z,6.18
2023-08-14T17:21:15.150Z,4.40
2023-08-14T17:23:42.338Z,7.22
2023-08-14T17:26:09.377Z,4.80
2023-08-14T17:28:36.571Z,6.30
2023-08-14T17:31:03.861Z,7.32
2023-08-14T17:33:31.010Z,8.25
2023-08-14T17:35:59.176Z,7.97
2023-08-14T17:38:26.209Z,6.72
2023-08-14T17:40:53.251Z,7.45
2023-08-14T17:43:20.632Z,5.90
2023-08-14T17:45:50.250Z,5.85
2023-08-14T17:48:18.105Z,6.80
2023-08-14T17:50:50.849Z,6.88
2023-08-14T17:53:20.074Z,6.72
2023-08-14T17:55:47.525Z,6.75
2023-08-14T17:58:14.656Z,5.18
2023-08-14T18:00:53.304Z,6.25
2023-08-14T18:03:20.634Z,6.55
2023-08-14T18:05:52.321Z,8.45
2023-08-14T18:08:20.478Z,6.13
2023-08-14T18:10:47.808Z,6.68
2023-08-14T18:13:15.014Z,6.55
2023-08-14T18:15:42.288Z,8.57
2023-08-14T18:18:09.811Z,8.65
2023-08-14T18:20:37.412Z,9.00
2023-08-14T18:23:05.039Z,12.45
2023-08-14T18:25:32.434Z,15.45
2023-08-14T18:27:59.683Z,20.92
2023-08-14T18:30:29.690Z,19.52
2023-08-14T18:32:58.963Z,13.10
2023-08-14T18:35:26.077Z,10.20
2023-08-14T18:37:54.352Z,9.57
2023-08-14T18:40:21.499Z,6.88
2023-08-14T18:42:48.584Z,7.07
2023-08-14T18:45:16.865Z,8.60
2023-08-14T18:47:44.464Z,8.10
2023-08-14T18:50:13.508Z,9.02
2023-08-14T18:52:40.972Z,8.02
2023-08-14T18:55:08.556Z,7.07
2023-08-14T18:57:36.121Z,9.35
2023-08-14T19:00:05.447Z,10.73
2023-08-14T19:05:00.535Z,8.45
2023-08-14T19:07:28.310Z,6.57
2023-08-14T19:09:55.534Z,7.05
2023-08-14T19:12:23.192Z,11.45
2023-08-14T19:14:52.948Z,8.00
2023-08-14T19:17:20.610Z,10.20
2023-08-14T19:19:48.170Z,7.82
2023-08-14T19:22:34.246Z,9.02
2023-08-14T19:25:01.901Z,9.05
2023-08-14T19:27:32.814Z,7.82
2023-08-14T19:30:00.280Z,7.00
2023-08-14T19:32:27.838Z,8.15
2023-08-14T19:34:54.996Z,8.73
2023-08-14T19:37:23.067Z,6.47
2023-08-14T19:39:50.121Z,8.80
2023-08-14T19:42:17.231Z,9.18
2023-08-14T19:44:44.322Z,7.55
2023-08-14T19:47:11.491Z,8.85
2023-08-14T19:49:38.631Z,9.55
2023-08-14T19:52:05.862Z,9.93
2023-08-14T19:54:33.058Z,8.80
2023-08-14T19:57:00.262Z,8.98
2023-08-14T19:59:27.517Z,8.65
2023-08-14T20:01:54.733Z,8.32
2023-08-14T20:04:21.870Z,9.00
2023-08-14T20:06:49.288Z,10.95
2023-08-14T20:09:16.507Z,8.05
2023-08-14T20:11:43.639Z,9.10
2023-08-14T20:14:10.777Z,8.45
2023-08-14T20:16:37.948Z,7.25
2023-08-14T20:19:05.564Z,10.93
2023-08-14T20:21:32.702Z,6.85
2023-08-14T20:24:00.208Z,6.85
2023-08-14T20:26:27.491Z,10.10
2023-08-14T20:28:54.653Z,7.60
2023-08-14T20:31:22.852Z,8.40
2023-08-14T20:33:50.835Z,7.18
2023-08-14T20:36:21.818Z,6.80
2023-08-14T20:38:51.925Z,6.70
2023-08-14T20:43:46.744Z,9.20
2023-08-14T20:46:15.173Z,7.55
2023-08-14T20:48:42.671Z,8.23
2023-08-14T20:51:09.853Z,7.13
2023-08-14T20:53:37.141Z,9.32
2023-08-14T20:56:04.508Z,7.97
2023-08-14T20:58:32.070Z,8.45
2023-08-14T21:00:59.152Z,6.05
2023-08-14T21:03:26.365Z,8.38
2023-08-14T21:05:57.513Z,6.63
2023-08-14T21:08:24.929Z,6.78
2023-08-14T21:10:52.062Z,7.25
2023-08-14T21:13:20.001Z,6.18
2023-08-14T21:15:47.205Z,6.38
2023-08-14T21:18:14.613Z,9.13
2023-08-14T21:20:43.559Z,8.23
2023-08-14T21:23:10.716Z,8.68
2023-08-14T21:25:47.036Z,7.57
2023-08-14T21:28:15.048Z,7.10
2023-08-14T21:30:42.390Z,5.68
2023-08-14T21:33:09.754Z,6.93
2023-08-14T21:35:36.967Z,6.35
2023-08-14T21:38:04.447Z,6.70
2023-08-14T21:40:34.663Z,5.95
2023-08-14T21:43:02.026Z,6.07
2023-08-14T21:45:29.119Z,6.88
2023-08-14T21:47:56.287Z,6.18
2023-08-14T21:50:23.430Z,7.25
2023-08-14T21:52:50.490Z,6.60
2023-08-14T21:55:17.700Z,6.20
2023-08-14T21:57:44.768Z,6.10
2023-08-14T22:00:12.649Z,7.50
2023-08-14T22:02:40.415Z,7.55
2023-08-14T22:05:07.650Z,7.43
2023-08-14T22:07:34.686Z,7.30
2023-08-14T22:10:02.852Z,7.20
2023-08-14T22:12:31.294Z,7.07
2023-08-14T22:14:58.409Z,7.85
2023-08-14T22:17:25.486Z,10.60
2023-08-14T22:19:52.796Z,7.75
2023-08-14T22:22:19.934Z,7.97
2023-08-14T22:24:48.281Z,7.38
2023-08-14T22:27:15.610Z,5.68
2023-08-14T22:29:42.812Z,6.60
2023-08-14T22:32:09.919Z,8.50
2023-08-14T22:34:37.626Z,6.90
2023-08-14T22:37:05.145Z,6.03
2023-08-14T22:39:32.642Z,6.35
2023-08-14T22:42:01.366Z,6.40
2023-08-14T22:44:31.061Z,5.95
2023-08-14T22:46:58.329Z,8.43
2023-08-14T22:49:25.672Z,6.10
2023-08-14T22:51:54.093Z,5.93
2023-08-14T22:54:21.225Z,5.90
2023-08-14T22:56:50.316Z,5.65
2023-08-14T22:59:20.917Z,7.30
2023-08-14T23:04:19.947Z,6.97
2023-08-14T23:06:47.267Z,8.02
2023-08-14T23:09:14.592Z,6.45
2023-08-14T23:11:42.338Z,7.18
2023-08-14T23:14:09.427Z,5.90
2023-08-14T23:16:38.973Z,7.13
2023-08-14T23:19:06.374Z,8.50
2023-08-14T23:21:34.044Z,9.13
2023-08-14T23:24:04.308Z,7.22
2023-08-14T23:26:31.502Z,7.68
2023-08-14T23:28:58.671Z,8.80
2023-08-14T23:31:25.976Z,9.32
2023-08-14T23:33:53.335Z,7.80
2023-08-14T23:36:20.745Z,6.97
2023-08-14T23:38:50.658Z,6.40
2023-08-14T23:41:17.715Z,6.82
2023-08-14T23:43:44.716Z,6.65
2023-08-14T23:46:11.839Z,6.47
2023-08-14T23:48:38.948Z,6.35
2023-08-14T23:51:06.375Z,9.00
2023-08-14T23:53:33.538Z,6.82
2023-08-14T23:56:00.895Z,9.45
2023-08-14T23:58:28.255Z,8.20
